Kezdőlap
METAR-TAF:

METAR-TAF

Repülőterek :

Szöul Incheon, Dél-Korea

Incshoni nemzetközi repülőtér

földrajzi szélesség: 37-28N, földrajzi hosszúság: 126-27E, magasság: 7 m

Jelenlegi meteorológiai megfigyelések

A jelentés 25 perccel ezelõtt készült, 00:00 UTC
Észak-északnyugati szél 9 kt
Hőmérséklet 0°C
Páratartalom 59%
Légköri nyomás 1029 hPa
Látótávolság: 9000 m

METAR: RKSI 240000Z 34009KT 9000 NSC 00/M07 Q1029 NOSIG

Idő: 09:25 (00:25 UTC)

Előrejelzés

A jelentés 1 órával és 25 perccel ezelõtt készült, 23:00 UTC
Az előrejelzés 24-én 00 óra UTC és 25-én 06 óra UTC között érvényes
Északnyugati szél 6 kt
Látótávolság: 6000 m

TAF: RKSI 232300Z 2400/2506 31006KT 6000 NSC TX04/2406Z TNM03/2421Z TX05/2505Z

Meteorológiai megfigyelések és előrejelzések több, mint 4000 repülőtéren (METAR és TAF jelentéseket).

A térképen piros és sárga pontok jelzik az elérhető meteorológiai állomásokat.

Mozgassa az egeret a pont fölött, hogy megjelenjen az állomás neve.

Azután kattintson az időjárási megfigyelések és előrejelzések megtekintéséhez.

A térkép megváltoztatása: kattintson a fekete keresztel jelölt zöld gombra ráközelítéshez, a vonallal jelölt zöld gombra távolításhoz, vagy a zöld nyilakra a szomszédos térképek eléréséhez.


METAR-TAF: